Time;durP1;ratioP1;P1;durP2;ratioP2;P2;SDS_P1;SDS_P2;PMS_P1;PMS_P2;Temp;Humidity;BMP_temperature;BMP_pressure;BME280_temperature;BME280_humidity;BME280_pressure;Samples;Min_cycle;Max_cycle;Signal;HPM_P1;HPM_P2
2022/08/12 00:44:54;;;;;;;6.78;4.28;;;19.00;99.90;;;;;;4965295;28;20091;-86
2022/08/12 00:47:22;;;;;;;5.57;4.35;;;18.90;99.90;;;;;;4986702;28;20355;-86
2022/08/12 00:49:49;;;;;;;7.95;4.68;;;18.90;99.90;;;;;;4967856;28;20053;-86
2022/08/12 00:52:17;;;;;;;7.78;4.25;;;18.90;99.90;;;;;;4978360;28;20049;-85
2022/08/12 00:54:57;;;;;;;7.53;4.05;;;18.90;99.90;;;;;;4979495;28;20136;-85
2022/08/12 00:57:24;;;;;;;5.75;4.38;;;18.80;99.90;;;;;;4969620;28;20108;-86
2022/08/12 00:59:57;;;;;;;5.25;4.50;;;18.80;99.90;;;;;;5001904;28;20046;-86
2022/08/12 01:02:24;;;;;;;7.70;4.57;;;18.80;99.90;;;;;;5004859;28;20693;-86
2022/08/12 01:13:21;;;;;;;6.00;4.72;;;18.60;99.90;;;;;;5004646;28;20966;-87
2022/08/12 01:15:53;;;;;;;7.03;4.53;;;18.60;99.90;;;;;;4961463;28;20057;-86
2022/08/12 01:18:27;;;;;;;6.18;4.50;;;18.60;99.90;;;;;;4990407;28;20080;-86
2022/08/12 01:21:21;;;;;;;8.77;4.60;;;18.60;99.90;;;;;;4985022;28;20112;-86
2022/08/12 01:24:24;;;;;;;6.53;4.47;;;18.60;99.90;;;;;;4968028;28;20053;-87
2022/08/12 01:26:53;;;;;;;8.15;4.90;;;18.50;99.90;;;;;;4989909;28;20068;-86
2022/08/12 01:29:26;;;;;;;9.35;4.78;;;18.40;99.90;;;;;;5013868;28;21511;-85
2022/08/12 01:31:56;;;;;;;10.70;5.30;;;18.40;99.90;;;;;;4987379;28;20544;-86
2022/08/12 01:34:29;;;;;;;5.05;4.40;;;18.40;99.90;;;;;;4976909;28;20773;-86
2022/08/12 01:36:58;;;;;;;8.20;4.80;;;18.30;99.90;;;;;;4990257;28;20041;-85
2022/08/12 01:40:03;;;;;;;5.50;4.78;;;18.30;99.90;;;;;;5002420;28;20071;-86
2022/08/12 01:42:46;;;;;;;8.05;5.43;;;18.30;99.90;;;;;;4966580;28;20033;-87
2022/08/12 01:45:23;;;;;;;9.18;5.15;;;18.20;99.90;;;;;;5016309;28;20049;-86
2022/08/12 01:48:28;;;;;;;7.72;4.80;;;18.20;99.90;;;;;;4996360;28;20045;-86
2022/08/12 01:51:25;;;;;;;8.15;5.20;;;18.10;99.90;;;;;;4983054;28;20054;-86
2022/08/12 01:54:04;;;;;;;6.40;5.30;;;18.10;99.90;;;;;;4972965;28;20050;-86
2022/08/12 01:57:05;;;;;;;7.75;5.35;;;18.10;99.90;;;;;;5022950;28;20049;-86
2022/08/12 01:59:46;;;;;;;10.27;5.95;;;18.10;99.90;;;;;;4961852;28;20065;-85
2022/08/12 02:02:29;;;;;;;7.80;5.60;;;18.00;99.90;;;;;;4952073;28;20046;-85
2022/08/12 02:11:28;;;;;;;8.68;6.60;;;18.00;99.90;;;;;;5001114;28;20148;-86
2022/08/12 02:13:59;;;;;;;7.50;5.90;;;17.90;99.90;;;;;;4993621;28;20057;-86
2022/08/12 02:16:38;;;;;;;8.25;6.05;;;17.90;99.90;;;;;;4962904;28;20049;-87
2022/08/12 02:19:19;;;;;;;9.80;6.22;;;17.90;99.90;;;;;;5024671;28;20730;-86
2022/08/12 02:21:57;;;;;;;7.72;5.78;;;17.90;99.90;;;;;;4997044;28;20050;-85
2022/08/12 02:24:30;;;;;;;7.25;5.97;;;17.90;99.90;;;;;;5007578;28;20341;-86
2022/08/12 02:26:58;;;;;;;9.73;6.75;;;17.80;99.90;;;;;;5016259;28;20909;-86
2022/08/12 02:29:25;;;;;;;9.13;6.03;;;17.80;99.90;;;;;;5015535;28;20046;-87
2022/08/12 02:31:52;;;;;;;13.27;6.90;;;17.80;99.90;;;;;;5006680;28;20133;-86
2022/08/12 02:34:21;;;;;;;8.00;6.20;;;17.70;99.90;;;;;;4983985;28;20093;-85
2022/08/12 02:36:47;;;;;;;8.30;6.40;;;17.70;99.90;;;;;;5006464;28;20050;-86
2022/08/12 02:39:15;;;;;;;9.48;6.57;;;17.70;99.90;;;;;;4981754;28;21122;-84
2022/08/12 02:41:44;;;;;;;7.00;6.30;;;17.70;99.90;;;;;;4965783;28;20062;-87
2022/08/12 02:44:16;;;;;;;9.18;6.15;;;17.70;99.90;;;;;;5018057;28;20081;-85
2022/08/12 02:46:48;;;;;;;;;;;17.60;99.90;;;;;;4990101;28;20042;-86
2022/08/12 02:49:30;;;;;;;8.85;6.22;;;17.60;99.90;;;;;;5011049;28;19917;-86
2022/08/12 02:52:06;;;;;;;7.65;6.95;;;17.60;99.90;;;;;;5017207;28;20565;-88
2022/08/12 02:54:35;;;;;;;7.78;6.57;;;17.50;99.90;;;;;;4982290;28;20050;-86
2022/08/12 02:57:01;;;;;;;8.30;7.07;;;17.50;99.90;;;;;;4997667;28;20149;-86
2022/08/12 02:59:29;;;;;;;9.52;6.60;;;17.50;99.90;;;;;;4982459;28;20103;-86
2022/08/12 03:02:03;;;;;;;10.68;6.78;;;17.50;99.90;;;;;;4987926;28;20038;-87
2022/08/12 03:04:35;;;;;;;10.50;6.90;;;17.40;99.90;;;;;;4987763;28;20071;-85
2022/08/12 03:07:20;;;;;;;9.52;7.65;;;17.40;99.90;;;;;;4984398;28;20050;-85
2022/08/12 03:09:58;;;;;;;7.45;6.60;;;17.40;99.90;;;;;;4989831;28;20456;-85
2022/08/12 03:12:25;;;;;;;8.48;7.18;;;17.30;99.90;;;;;;4979172;28;20054;-86
2022/08/12 03:14:53;;;;;;;9.02;6.25;;;17.30;99.90;;;;;;4968728;28;20053;-85
2022/08/12 03:17:58;;;;;;;9.05;6.55;;;17.30;99.90;;;;;;4951182;28;20109;-86
2022/08/12 03:20:24;;;;;;;9.43;6.85;;;17.20;99.90;;;;;;4961201;28;20502;-86
2022/08/12 03:22:51;;;;;;;8.20;7.40;;;17.20;99.90;;;;;;4980219;28;20606;-86
2022/08/12 03:25:25;;;;;;;9.55;6.53;;;17.20;99.90;;;;;;4967199;28;20054;-86
2022/08/12 03:27:56;;;;;;;11.02;6.93;;;17.10;99.90;;;;;;4980526;28;20054;-85
2022/08/12 03:30:30;;;;;;;9.45;7.18;;;17.10;99.90;;;;;;4953084;28;20092;-86
2022/08/12 03:32:58;;;;;;;9.05;6.75;;;17.00;99.90;;;;;;4980938;28;20046;-86
2022/08/12 03:35:29;;;;;;;9.48;6.88;;;17.00;99.90;;;;;;4966461;28;20102;-86
2022/08/12 03:37:58;;;;;;;8.60;7.07;;;17.00;99.90;;;;;;4998170;28;20119;-86
2022/08/12 04:00:24;;;;;;;7.50;6.80;;;16.80;99.90;;;;;;4966511;28;20372;-86
2022/08/12 04:03:00;;;;;;;7.90;6.65;;;16.80;99.90;;;;;;4993240;28;20144;-86
2022/08/12 04:05:31;;;;;;;10.30;7.07;;;16.70;99.90;;;;;;4965081;28;20061;-85
2022/08/12 04:07:58;;;;;;;9.80;7.18;;;16.70;99.90;;;;;;4946319;28;20046;-85
2022/08/12 04:13:20;;;;;;;10.02;7.90;;;16.70;99.90;;;;;;4980532;28;20053;-86
2022/08/12 04:15:47;;;;;;;10.38;8.07;;;16.70;99.90;;;;;;5000232;28;20129;-86
2022/08/12 04:18:17;;;;;;;8.63;7.40;;;16.70;99.90;;;;;;4962486;28;20564;-86
2022/08/12 04:20:48;;;;;;;9.85;7.30;;;16.70;99.90;;;;;;5000358;28;20409;-86
2022/08/12 04:23:16;;;;;;;10.00;8.07;;;16.70;99.90;;;;;;4995232;28;20477;-86
2022/08/12 04:25:43;;;;;;;8.35;7.45;;;16.70;99.90;;;;;;4982753;28;20132;-85
2022/08/12 04:28:11;;;;;;;9.93;7.93;;;16.70;99.90;;;;;;4950487;28;20038;-86
2022/08/12 04:30:39;;;;;;;9.23;8.30;;;16.70;99.90;;;;;;4941880;28;20092;-86
2022/08/12 04:33:08;;;;;;;10.20;7.57;;;16.70;99.90;;;;;;4995153;28;20077;-86
2022/08/12 04:35:34;;;;;;;9.73;7.75;;;16.60;99.90;;;;;;4980796;28;20046;-86
2022/08/12 04:38:01;;;;;;;8.77;7.88;;;16.70;99.90;;;;;;4979575;28;20077;-86
2022/08/12 04:40:29;;;;;;;9.75;7.93;;;16.60;99.90;;;;;;4972344;28;20709;-86
2022/08/12 04:42:57;;;;;;;13.00;8.27;;;16.60;99.90;;;;;;4981251;28;20048;-85
2022/08/12 04:45:23;;;;;;;8.30;7.40;;;16.70;99.90;;;;;;4980725;28;20075;-85
2022/08/12 04:47:49;;;;;;;9.40;7.78;;;16.60;99.90;;;;;;4953921;28;20508;-85
2022/08/12 04:50:18;;;;;;;9.65;7.70;;;16.70;99.90;;;;;;4986843;28;20482;-86
2022/08/12 04:53:00;;;;;;;10.95;7.50;;;16.70;99.90;;;;;;4985185;28;20556;-85
2022/08/12 04:55:27;;;;;;;8.70;7.80;;;16.70;99.90;;;;;;4948648;28;20057;-86
2022/08/12 04:57:54;;;;;;;9.73;7.43;;;16.70;99.90;;;;;;4937752;28;20148;-86
2022/08/12 05:00:20;;;;;;;9.93;7.80;;;16.80;99.90;;;;;;4957484;28;20042;-85
2022/08/12 05:02:47;;;;;;;9.45;7.00;;;16.80;99.90;;;;;;4950204;28;20048;-85
2022/08/12 05:05:21;;;;;;;9.25;7.53;;;16.80;99.90;;;;;;4980649;28;20114;-86
2022/08/12 05:07:49;;;;;;;9.77;7.45;;;16.80;99.90;;;;;;4999550;28;20383;-86
2022/08/12 05:10:17;;;;;;;11.35;8.13;;;16.80;99.90;;;;;;4948915;28;20090;-86
2022/08/12 05:12:50;;;;;;;10.27;7.68;;;16.80;99.90;;;;;;4965115;28;20133;-86
2022/08/12 05:15:16;;;;;;;8.98;7.63;;;17.00;99.90;;;;;;4981928;28;20148;-85
2022/08/12 05:17:43;;;;;;;9.27;7.88;;;17.10;99.90;;;;;;4982929;28;20069;-85
2022/08/12 05:20:11;;;;;;;10.85;7.38;;;17.20;99.90;;;;;;4983447;28;20153;-85
2022/08/12 05:22:37;;;;;;;8.30;7.13;;;17.30;99.90;;;;;;4948789;28;20046;-83
2022/08/12 05:25:05;;;;;;;10.10;7.40;;;17.50;99.90;;;;;;4979917;28;20042;-86
2022/08/12 05:27:34;;;;;;;9.75;5.88;;;17.90;99.90;;;;;;4961558;28;20502;-83
2022/08/12 05:30:01;;;;;;;43.88;39.17;;;18.30;99.90;;;;;;5001909;28;20141;-82
2022/08/12 05:32:27;;;;;;;11.98;10.18;;;18.80;99.90;;;;;;4980150;28;20061;-80
2022/08/12 05:34:53;;;;;;;10.63;9.18;;;19.10;99.90;;;;;;4986953;28;20050;-82
2022/08/12 05:37:22;;;;;;;22.17;19.92;;;19.30;99.90;;;;;;4999892;28;20042;-82
2022/08/12 05:39:49;;;;;;;14.05;11.73;;;19.50;99.90;;;;;;4963204;28;20554;-80
2022/08/12 05:42:17;;;;;;;8.38;7.47;;;19.60;99.90;;;;;;4994299;28;20183;-81
2022/08/12 05:44:43;;;;;;;6.85;5.45;;;19.80;99.90;;;;;;4968649;28;20494;-81
2022/08/12 05:47:11;;;;;;;9.20;5.70;;;20.00;99.90;;;;;;4975092;28;20049;-81
2022/08/12 05:49:39;;;;;;;8.98;5.50;;;20.20;99.90;;;;;;4983872;28;20563;-81
2022/08/12 05:52:07;;;;;;;7.95;5.80;;;20.30;99.90;;;;;;4945219;28;20577;-78
2022/08/12 05:54:35;;;;;;;7.93;5.15;;;20.40;99.90;;;;;;4966868;28;20047;-82
2022/08/12 05:57:02;;;;;;;6.85;5.35;;;20.50;99.90;;;;;;4967416;28;20445;-82
2022/08/12 05:59:28;;;;;;;13.73;10.30;;;20.60;99.90;;;;;;4958348;28;20050;-80
2022/08/12 06:02:02;;;;;;;9.13;5.72;;;20.80;99.90;;;;;;4933031;28;20044;-80
2022/08/12 06:04:29;;;;;;;9.60;6.93;;;20.80;99.90;;;;;;4984984;28;20555;-80
2022/08/12 06:06:55;;;;;;;13.38;10.45;;;21.00;99.90;;;;;;4987562;28;20180;-81
2022/08/12 06:09:21;;;;;;;18.23;15.95;;;21.10;99.90;;;;;;4945162;28;20049;-80
2022/08/12 06:11:50;;;;;;;11.30;6.45;;;21.30;99.90;;;;;;4984773;28;20513;-81
2022/08/12 06:14:16;;;;;;;10.27;5.57;;;21.40;99.90;;;;;;4989010;28;20053;-82
2022/08/12 06:16:42;;;;;;;6.05;4.95;;;21.60;99.90;;;;;;4949692;28;20053;-81
2022/08/12 06:19:09;;;;;;;5.57;4.43;;;21.70;99.90;;;;;;4983883;28;20603;-81
2022/08/12 06:21:38;;;;;;;9.77;5.32;;;21.90;99.90;;;;;;4948031;28;20080;-80
2022/08/12 06:24:04;;;;;;;7.95;4.57;;;21.90;99.90;;;;;;5013678;28;20340;-82
2022/08/12 06:26:33;;;;;;;8.80;4.25;;;22.20;99.90;;;;;;4978475;28;20645;-81
2022/08/12 06:28:59;;;;;;;7.18;4.15;;;22.20;99.90;;;;;;4983817;28;20567;-81
2022/08/12 06:31:26;;;;;;;8.40;4.15;;;22.30;99.90;;;;;;4996991;28;20046;-80
2022/08/12 06:33:54;;;;;;;7.43;5.68;;;22.40;99.90;;;;;;4979146;28;20054;-79
2022/08/12 06:36:22;;;;;;;16.45;12.13;;;22.80;99.90;;;;;;4936816;28;20037;-77
2022/08/12 06:38:48;;;;;;;13.93;10.27;;;22.80;99.90;;;;;;4989169;28;20577;-77
2022/08/12 06:44:00;;;;;;;7.57;5.35;;;23.10;99.90;;;;;;4945499;28;20357;-78
2022/08/12 06:46:28;;;;;;;14.80;12.77;;;23.20;99.90;;;;;;4954533;28;20049;-77
2022/08/12 06:48:57;;;;;;;10.82;7.60;;;23.40;99.90;;;;;;4985514;28;20103;-75
2022/08/12 06:51:29;;;;;;;6.93;5.47;;;23.60;99.90;;;;;;4952478;28;20422;-76
2022/08/12 06:53:56;;;;;;;8.48;3.95;;;23.80;99.90;;;;;;4971820;28;20073;-80
2022/08/12 06:56:23;;;;;;;8.98;4.10;;;23.70;99.90;;;;;;4987145;28;20049;-79
2022/08/12 06:58:49;;;;;;;55.38;49.97;;;23.70;99.90;;;;;;4983873;28;20038;-76
2022/08/12 07:01:17;;;;;;;11.30;4.30;;;23.90;99.90;;;;;;4967531;28;20050;-77
2022/08/12 07:03:43;;;;;;;8.00;3.47;;;24.10;99.90;;;;;;4983411;28;20052;-76
2022/08/12 07:06:10;;;;;;;10.45;4.30;;;24.30;99.90;;;;;;4979858;28;20046;-80
2022/08/12 07:08:37;;;;;;;5.20;3.45;;;24.40;99.90;;;;;;5003158;28;20137;-80
2022/08/12 07:11:08;;;;;;;6.78;3.67;;;24.60;99.90;;;;;;4967402;28;20053;-79
2022/08/12 07:13:43;;;;;;;17.58;15.57;;;24.70;99.90;;;;;;4952371;28;20050;-79
2022/08/12 07:16:12;;;;;;;7.32;3.58;;;24.90;99.90;;;;;;5002743;28;20724;-79
2022/08/12 07:18:41;;;;;;;7.57;5.18;;;25.20;99.90;;;;;;4975750;28;20100;-82
2022/08/12 07:21:07;;;;;;;9.82;5.65;;;25.50;99.90;;;;;;5026377;28;20034;-82
2022/08/12 07:23:37;;;;;;;6.50;3.35;;;25.80;99.90;;;;;;5001735;28;20046;-82
2022/08/12 07:26:05;;;;;;;8.10;3.42;;;26.10;99.90;;;;;;5004363;28;20765;-79
2022/08/12 07:28:34;;;;;;;4.72;3.92;;;26.40;99.90;;;;;;5000416;28;20115;-81
2022/08/12 07:31:07;;;;;;;6.25;3.15;;;26.60;99.90;;;;;;4970752;28;20567;-81
2022/08/12 07:33:39;;;;;;;5.82;3.10;;;26.90;99.90;;;;;;4996556;28;20386;-80
2022/08/12 07:36:09;;;;;;;13.05;8.73;;;27.30;99.90;;;;;;4997638;28;20769;-81
2022/08/12 07:38:38;;;;;;;8.73;3.55;;;27.50;99.90;;;;;;4989126;28;20050;-80
2022/08/12 07:41:26;;;;;;;6.80;4.40;;;27.40;99.90;;;;;;5000074;28;20057;-81
2022/08/12 07:43:56;;;;;;;6.40;3.42;;;27.60;99.90;;;;;;4983115;28;20084;-81
2022/08/12 07:46:30;;;;;;;8.90;3.47;;;27.80;99.90;;;;;;5010324;28;20049;-81
2022/08/12 07:48:59;;;;;;;5.65;3.08;;;27.80;99.80;;;;;;4986501;28;20402;-80
2022/08/12 07:51:27;;;;;;;8.40;3.03;;;28.10;99.10;;;;;;4987052;28;20080;-81
2022/08/12 07:53:56;;;;;;;5.00;2.90;;;28.40;98.30;;;;;;4972268;28;20175;-81
2022/08/12 07:56:23;;;;;;;4.80;2.55;;;28.40;97.50;;;;;;4984118;28;20065;-82
2022/08/12 07:58:49;;;;;;;7.00;3.00;;;28.50;96.70;;;;;;4972023;28;20722;-81
2022/08/12 08:01:20;;;;;;;5.65;3.83;;;28.70;95.90;;;;;;4967606;28;20048;-81
2022/08/12 08:06:39;;;;;;;9.50;4.47;;;28.90;93.60;;;;;;4966525;28;20125;-81
2022/08/12 08:09:05;;;;;;;5.05;3.22;;;29.20;92.90;;;;;;4966150;28;20545;-81
2022/08/12 08:14:16;;;;;;;5.70;3.00;;;29.60;92.00;;;;;;4982215;28;20050;-81
2022/08/12 08:16:42;;;;;;;6.45;4.32;;;29.80;91.00;;;;;;4992191;28;20068;-81
2022/08/12 08:19:21;;;;;;;8.70;3.33;;;30.10;90.40;;;;;;4935123;28;20104;-81
2022/08/12 08:21:48;;;;;;;6.38;3.17;;;30.20;87.90;;;;;;4982641;28;20050;-81
2022/08/12 08:24:14;;;;;;;6.55;3.92;;;30.50;86.40;;;;;;4965076;28;20053;-81
2022/08/12 08:26:40;;;;;;;6.35;3.95;;;30.60;83.20;;;;;;4999885;28;20084;-81
2022/08/12 08:29:07;;;;;;;8.07;6.57;;;30.70;81.30;;;;;;4980726;28;20526;-81
2022/08/12 08:31:34;;;;;;;5.80;3.97;;;30.70;80.60;;;;;;4980277;28;20054;-80
2022/08/12 08:34:00;;;;;;;7.45;3.45;;;31.00;78.80;;;;;;4982455;28;20100;-81
2022/08/12 08:36:27;;;;;;;6.85;3.22;;;30.90;77.20;;;;;;4979051;28;20042;-81
2022/08/12 08:38:53;;;;;;;5.80;2.70;;;31.00;74.30;;;;;;4972871;28;20140;-81
2022/08/12 08:44:04;;;;;;;6.40;2.65;;;31.50;69.90;;;;;;4979752;28;20650;-81
2022/08/12 08:46:33;;;;;;;5.38;2.30;;;31.60;66.60;;;;;;4998809;28;20058;-80
2022/08/12 08:49:00;;;;;;;9.20;4.07;;;31.70;63.90;;;;;;5003316;28;20455;-80
2022/08/12 08:51:26;;;;;;;4.45;3.30;;;31.80;64.00;;;;;;4989396;28;20076;-81
2022/08/12 08:53:55;;;;;;;5.80;2.88;;;32.00;62.90;;;;;;4965632;28;20107;-81
2022/08/12 08:56:21;;;;;;;5.50;3.08;;;32.10;62.20;;;;;;4979788;28;20125;-81
2022/08/12 08:58:48;;;;;;;8.60;3.15;;;32.40;61.70;;;;;;4967298;28;20103;-81
2022/08/12 09:01:20;;;;;;;7.55;4.40;;;32.30;61.00;;;;;;4992465;28;20046;-81
2022/08/12 09:03:47;;;;;;;4.15;2.53;;;32.50;60.10;;;;;;4998308;28;20092;-81
2022/08/12 09:06:13;;;;;;;5.95;2.25;;;32.80;60.80;;;;;;4996453;28;20077;-80
2022/08/12 09:08:48;;;;;;;5.47;3.72;;;33.00;60.00;;;;;;4977338;28;20073;-80
2022/08/12 09:14:00;;;;;;;5.78;3.10;;;33.60;58.00;;;;;;4963585;28;20449;-80
2022/08/12 09:16:26;;;;;;;3.33;2.40;;;33.60;56.00;;;;;;4977740;28;20051;-81
2022/08/12 09:18:52;;;;;;;6.40;4.25;;;34.00;55.90;;;;;;4981009;28;20043;-81
2022/08/12 09:21:20;;;;;;;6.25;1.80;;;33.90;53.10;;;;;;4969692;28;20100;-81
2022/08/12 09:23:48;;;;;;;4.72;1.80;;;33.70;50.50;;;;;;4983160;28;20470;-81
2022/08/12 09:26:18;;;;;;;5.32;2.97;;;33.60;50.80;;;;;;4978219;28;20105;-81
2022/08/12 09:28:47;;;;;;;4.13;3.10;;;33.80;51.50;;;;;;4949918;28;20081;-80
2022/08/12 09:31:13;;;;;;;4.63;2.33;;;33.90;51.20;;;;;;4977443;28;20731;-80
2022/08/12 09:33:39;;;;;;;7.15;2.50;;;34.30;50.40;;;;;;4990068;28;20620;-80
2022/08/12 09:36:06;;;;;;;4.28;3.35;;;34.30;50.10;;;;;;4993862;28;20046;-80
2022/08/12 09:38:32;;;;;;;5.15;2.10;;;34.20;49.40;;;;;;4995428;28;20077;-81
2022/08/12 09:40:58;;;;;;;7.88;3.22;;;34.30;48.60;;;;;;4950787;28;20050;-81
2022/08/12 09:46:16;;;;;;;3.85;1.98;;;34.50;48.70;;;;;;4986648;28;20050;-80
2022/08/12 09:48:45;;;;;;;4.97;3.33;;;34.60;48.50;;;;;;4995820;28;20419;-81
2022/08/12 09:51:12;;;;;;;4.43;3.50;;;34.70;48.30;;;;;;4963634;28;20042;-80
2022/08/12 09:53:39;;;;;;;5.15;2.35;;;34.90;47.10;;;;;;4966447;28;20051;-80
2022/08/12 09:56:16;;;;;;;5.60;1.90;;;35.20;46.10;;;;;;4994740;28;20069;-80
2022/08/12 09:58:45;;;;;;;4.82;2.45;;;35.60;45.00;;;;;;4997798;28;20134;-80
2022/08/12 10:01:12;;;;;;;3.60;1.90;;;35.40;45.00;;;;;;4965090;28;20054;-80
2022/08/12 10:03:42;;;;;;;3.38;1.83;;;35.60;42.90;;;;;;4981287;28;20050;-80
2022/08/12 10:06:08;;;;;;;4.18;2.13;;;35.50;42.90;;;;;;4977186;28;20050;-80
2022/08/12 10:08:38;;;;;;;5.38;2.53;;;35.40;43.00;;;;;;4989850;28;20052;-80
2022/08/12 10:13:53;;;;;;;5.38;2.30;;;35.70;42.20;;;;;;4987625;28;20053;-80
2022/08/12 10:16:27;;;;;;;4.82;2.53;;;35.10;42.50;;;;;;4987099;28;20046;-80
2022/08/12 10:18:56;;;;;;;3.70;2.58;;;35.50;43.00;;;;;;4999818;28;20506;-80
2022/08/12 10:21:25;;;;;;;6.25;2.45;;;35.90;41.80;;;;;;5000348;28;20569;-80
2022/08/12 10:23:53;;;;;;;4.68;2.30;;;36.10;41.70;;;;;;4984015;28;20395;-80
2022/08/12 10:31:52;;;;;;;4.95;2.30;;;36.40;40.10;;;;;;5013528;28;20041;-80
2022/08/12 10:34:21;;;;;;;6.88;2.45;;;36.70;40.00;;;;;;4973080;28;20884;-80
2022/08/12 10:36:49;;;;;;;3.53;2.20;;;36.50;40.30;;;;;;4997711;28;20251;-80
2022/08/12 10:39:17;;;;;;;7.07;2.20;;;36.50;40.40;;;;;;5000859;28;20054;-79
2022/08/12 10:44:30;;;;;;;4.35;2.05;;;37.20;39.60;;;;;;5009736;28;20503;-79
2022/08/12 10:46:56;;;;;;;3.72;2.10;;;36.90;39.10;;;;;;5011217;28;20104;-78
2022/08/12 10:49:27;;;;;;;6.40;2.30;;;36.90;38.60;;;;;;5009295;28;20058;-79
2022/08/12 10:51:54;;;;;;;5.68;2.40;;;37.30;38.30;;;;;;4966784;28;20934;-79
2022/08/12 10:54:21;;;;;;;5.18;2.40;;;36.90;38.60;;;;;;4966502;28;20054;-79
2022/08/12 10:56:48;;;;;;;4.22;1.90;;;37.00;37.90;;;;;;5000200;28;20049;-79
2022/08/12 10:59:20;;;;;;;4.22;2.33;;;36.60;37.90;;;;;;4995428;28;20068;-79
2022/08/12 11:01:47;;;;;;;6.28;1.75;;;37.00;38.80;;;;;;4996076;28;20046;-81
2022/08/12 11:04:13;;;;;;;5.85;1.90;;;36.70;38.20;;;;;;4983667;28;20077;-78
2022/08/12 11:06:47;;;;;;;4.25;1.50;;;36.90;38.40;;;;;;4983068;28;20037;-78
2022/08/12 11:09:16;;;;;;;5.25;2.03;;;37.10;36.40;;;;;;4984896;28;20050;-78
2022/08/12 11:11:47;;;;;;;3.45;1.50;;;37.30;35.80;;;;;;4996087;28;20065;-78
2022/08/12 11:14:16;;;;;;;3.72;1.83;;;36.90;35.30;;;;;;4997538;28;20153;-78
2022/08/12 11:16:45;;;;;;;2.55;1.33;;;37.00;35.90;;;;;;5000407;28;20042;-78
2022/08/12 11:19:15;;;;;;;4.35;1.73;;;37.00;34.60;;;;;;4979814;28;20168;-78
2022/08/12 11:21:40;;;;;;;3.70;1.97;;;37.10;34.60;;;;;;4970101;28;20042;-78
2022/08/12 11:24:07;;;;;;;4.07;1.92;;;37.30;35.50;;;;;;4935398;28;20864;-78
2022/08/12 11:26:33;;;;;;;3.25;1.65;;;36.70;35.50;;;;;;4986336;28;20116;-78
2022/08/12 11:28:59;;;;;;;5.15;1.77;;;36.90;34.70;;;;;;4972360;28;20183;-78
2022/08/12 11:31:25;;;;;;;4.47;1.92;;;36.70;35.50;;;;;;5005124;28;20755;-78
2022/08/12 11:33:51;;;;;;;3.80;2.00;;;36.70;35.00;;;;;;5018312;28;20050;-79
2022/08/12 11:36:18;;;;;;;8.05;2.13;;;36.50;35.60;;;;;;4995362;28;20042;-78
2022/08/12 11:38:44;;;;;;;5.40;1.95;;;36.80;35.90;;;;;;4998272;28;20046;-79
2022/08/12 11:41:12;;;;;;;4.90;2.08;;;37.30;35.30;;;;;;4977530;28;20482;-80
2022/08/12 11:43:38;;;;;;;4.70;2.25;;;37.20;35.20;;;;;;4972290;28;20506;-78
2022/08/12 11:46:05;;;;;;;4.22;1.80;;;37.60;34.90;;;;;;4972021;28;20057;-79
2022/08/12 11:48:38;;;;;;;2.38;1.50;;;37.10;34.80;;;;;;4971495;28;20136;-78
2022/08/12 11:51:06;;;;;;;3.70;1.75;;;37.30;35.90;;;;;;4999782;28;20057;-79
2022/08/12 11:53:36;;;;;;;5.53;2.50;;;37.30;35.60;;;;;;4980027;28;20080;-79
2022/08/12 11:56:04;;;;;;;3.78;1.70;;;37.50;36.00;;;;;;4968111;28;20049;-78
2022/08/12 11:58:31;;;;;;;3.70;1.85;;;37.70;36.00;;;;;;4954579;28;20589;-79
2022/08/12 12:00:58;;;;;;;5.13;1.90;;;37.50;35.10;;;;;;4964713;28;20042;-79
2022/08/12 12:03:24;;;;;;;5.53;1.90;;;38.00;35.40;;;;;;4983758;28;20050;-79
2022/08/12 12:05:50;;;;;;;4.90;2.10;;;37.60;35.30;;;;;;4983166;28;20073;-79
2022/08/12 12:08:24;;;;;;;5.45;1.67;;;38.00;35.30;;;;;;4960676;28;20764;-79
2022/08/12 12:10:51;;;;;;;4.32;1.88;;;37.70;34.00;;;;;;4949419;28;20076;-79
2022/08/12 12:13:18;;;;;;;3.40;1.90;;;37.80;34.30;;;;;;5002908;28;20400;-79
2022/08/12 12:15:45;;;;;;;4.88;2.20;;;37.60;34.90;;;;;;4962962;28;20104;-78
2022/08/12 12:18:23;;;;;;;5.30;1.95;;;37.40;34.90;;;;;;4982187;28;20538;-79
2022/08/12 12:20:50;;;;;;;5.47;1.92;;;37.40;34.30;;;;;;4997935;28;20045;-79
2022/08/12 12:23:16;;;;;;;5.65;1.70;;;37.50;35.30;;;;;;4969765;28;20345;-79
2022/08/12 12:25:42;;;;;;;7.82;2.08;;;37.40;34.60;;;;;;4979417;28;20050;-79
2022/08/12 12:28:08;;;;;;;3.70;1.90;;;37.60;34.80;;;;;;4996574;28;20180;-79
2022/08/12 12:30:35;;;;;;;4.03;2.10;;;37.70;34.80;;;;;;4982804;28;20050;-79
2022/08/12 12:33:02;;;;;;;4.38;1.95;;;38.00;34.20;;;;;;4966073;28;20509;-79
2022/08/12 12:35:28;;;;;;;3.83;1.98;;;38.20;35.10;;;;;;4982510;28;20085;-79
2022/08/12 12:37:56;;;;;;;3.35;1.52;;;37.90;35.10;;;;;;4964468;28;20042;-79
2022/08/12 12:40:24;;;;;;;2.92;1.83;;;37.70;34.10;;;;;;4983471;28;20488;-78
2022/08/12 12:42:51;;;;;;;7.80;1.98;;;37.90;34.40;;;;;;4974860;28;20042;-79
2022/08/12 12:45:17;;;;;;;9.38;2.22;;;38.20;34.80;;;;;;4982699;28;20604;-78
2022/08/12 12:48:03;;;;;;;4.30;1.90;;;38.20;33.30;;;;;;4997658;28;20124;-78
2022/08/12 12:50:36;;;;;;;4.90;1.92;;;38.00;32.50;;;;;;4993592;28;20056;-78
2022/08/12 12:53:03;;;;;;;2.92;1.75;;;37.70;34.10;;;;;;4963172;28;20524;-78
2022/08/12 12:55:30;;;;;;;3.85;1.80;;;37.90;33.70;;;;;;4965417;28;20060;-78
2022/08/12 12:57:57;;;;;;;5.10;1.80;;;37.90;32.60;;;;;;4982270;28;20568;-78
2022/08/12 13:00:24;;;;;;;7.90;1.98;;;37.90;33.10;;;;;;4993978;28;20111;-78
2022/08/12 13:02:56;;;;;;;6.43;1.85;;;37.50;33.60;;;;;;4995629;28;20082;-78
2022/08/12 13:05:25;;;;;;;2.85;1.75;;;37.80;33.40;;;;;;4977855;28;20077;-78
2022/08/12 13:07:53;;;;;;;4.40;1.80;;;37.60;34.00;;;;;;4996568;28;20855;-78
2022/08/12 13:10:20;;;;;;;3.88;1.95;;;37.80;33.20;;;;;;4992851;28;20050;-78
2022/08/12 13:12:46;;;;;;;3.35;1.83;;;38.20;33.20;;;;;;4980787;28;20490;-78
2022/08/12 13:15:15;;;;;;;4.30;1.98;;;38.10;33.90;;;;;;4964302;28;20153;-78
2022/08/12 13:17:43;;;;;;;4.07;1.87;;;38.00;33.70;;;;;;4992595;28;20607;-78
2022/08/12 13:20:10;;;;;;;4.70;1.88;;;38.00;34.10;;;;;;4949483;28;20073;-78
2022/08/12 13:22:36;;;;;;;3.88;1.75;;;38.10;31.60;;;;;;4995444;28;20111;-78
2022/08/12 13:25:02;;;;;;;3.38;2.15;;;37.80;31.80;;;;;;4989459;28;20050;-78
2022/08/12 13:27:42;;;;;;;5.78;2.20;;;37.70;31.80;;;;;;5009056;28;20058;-78
2022/08/12 13:30:11;;;;;;;4.77;1.63;;;38.40;31.50;;;;;;4994608;28;20051;-78
2022/08/12 13:32:58;;;;;;;4.30;2.00;;;38.00;31.50;;;;;;5006072;28;20474;-79
2022/08/12 13:35:25;;;;;;;2.65;2.17;;;37.90;32.80;;;;;;4995610;28;20137;-79
2022/08/12 13:37:56;;;;;;;3.75;2.00;;;37.40;33.50;;;;;;4996294;28;20079;-79
2022/08/12 13:40:25;;;;;;;4.15;2.15;;;37.70;33.30;;;;;;4950589;28;20550;-78
2022/08/12 13:42:56;;;;;;;2.33;1.83;;;38.00;32.80;;;;;;4962099;28;20165;-79
2022/08/12 13:45:27;;;;;;;3.15;1.90;;;38.00;32.50;;;;;;4982140;28;20514;-79
2022/08/12 13:47:59;;;;;;;5.60;1.60;;;37.60;32.10;;;;;;4961019;28;20046;-79
2022/08/12 13:50:39;;;;;;;4.63;1.73;;;38.00;31.40;;;;;;4981161;28;20046;-78
2022/08/12 13:53:08;;;;;;;6.22;2.47;;;38.60;30.90;;;;;;4975086;28;20050;-78
2022/08/12 13:55:35;;;;;;;4.63;2.63;;;38.40;32.20;;;;;;4993987;28;20586;-78
2022/08/12 13:58:04;;;;;;;4.97;2.20;;;38.60;32.00;;;;;;4998209;28;20046;-79
2022/08/12 14:00:32;;;;;;;3.70;2.13;;;38.80;32.20;;;;;;4992773;28;20578;-78
2022/08/12 14:02:58;;;;;;;8.98;2.28;;;38.30;32.50;;;;;;4965019;28;20042;-78
2022/08/12 14:05:26;;;;;;;4.53;1.90;;;38.20;31.60;;;;;;4977339;28;20153;-78
2022/08/12 14:07:57;;;;;;;5.05;2.00;;;38.10;32.10;;;;;;5013827;28;20062;-78
2022/08/12 14:10:35;;;;;;;2.97;2.00;;;38.50;31.70;;;;;;4974932;28;20054;-78
2022/08/12 14:13:15;;;;;;;3.83;2.50;;;37.60;30.80;;;;;;5001004;28;20422;-78
2022/08/12 14:15:49;;;;;;;4.40;2.10;;;37.80;31.40;;;;;;4986663;28;20069;-79
2022/08/12 14:18:24;;;;;;;5.10;2.85;;;38.00;31.20;;;;;;5008573;28;20041;-79
2022/08/12 14:21:00;;;;;;;3.35;2.20;;;37.90;31.90;;;;;;4953269;28;20048;-79
2022/08/12 14:23:31;;;;;;;4.53;2.30;;;38.00;32.50;;;;;;4982016;28;20042;-79
2022/08/12 14:25:58;;;;;;;3.22;2.53;;;38.30;31.80;;;;;;4992855;28;20729;-79
2022/08/12 14:28:26;;;;;;;5.45;2.47;;;38.20;31.40;;;;;;4967210;28;20046;-79
2022/08/12 14:30:55;;;;;;;3.58;2.40;;;38.20;31.10;;;;;;4995894;28;20042;-79
2022/08/12 14:33:23;;;;;;;6.75;2.83;;;38.30;30.90;;;;;;5011105;28;20058;-79
2022/08/12 14:35:50;;;;;;;5.07;2.22;;;38.30;31.50;;;;;;4995968;28;20042;-79
2022/08/12 14:38:30;;;;;;;4.65;2.17;;;37.80;32.00;;;;;;4983213;28;20038;-79
2022/08/12 14:40:58;;;;;;;5.97;2.45;;;37.90;31.80;;;;;;4983539;28;20084;-79
2022/08/12 14:43:32;;;;;;;4.15;2.70;;;37.60;32.40;;;;;;4974989;28;20050;-79
2022/08/12 14:46:00;;;;;;;3.80;2.47;;;37.50;32.20;;;;;;4988107;28;20038;-79
2022/08/12 14:48:28;;;;;;;5.60;2.22;;;37.80;32.10;;;;;;4989301;28;20050;-79